createdAt,value
2023-01-04T00:01:11.387Z,3.75
2023-01-04T00:06:15.242Z,3.50
2023-01-04T00:11:18.383Z,3.53
2023-01-04T00:16:21.422Z,4.20
2023-01-04T00:21:24.240Z,4.10
2023-01-04T00:26:29.723Z,3.88
2023-01-04T00:31:50.067Z,3.83
2023-01-04T00:36:51.544Z,3.80
2023-01-04T00:41:59.346Z,3.58
2023-01-04T00:47:02.840Z,3.00
2023-01-04T00:52:04.492Z,2.88
2023-01-04T00:57:07.314Z,2.92
2023-01-04T01:02:08.848Z,3.10
2023-01-04T01:07:10.339Z,3.03
2023-01-04T01:12:11.818Z,2.90
2023-01-04T01:17:13.391Z,2.72
2023-01-04T01:22:14.873Z,3.00
2023-01-04T01:27:16.303Z,2.63
2023-01-04T01:32:17.755Z,2.40
2023-01-04T01:37:19.220Z,2.25
2023-01-04T01:42:22.870Z,2.25
2023-01-04T01:47:26.688Z,2.67
2023-01-04T01:52:31.012Z,2.53
2023-01-04T01:57:35.394Z,2.42
2023-01-04T02:02:37.172Z,2.28
2023-01-04T02:07:38.944Z,2.40
2023-01-04T02:12:40.384Z,2.08
2023-01-04T02:17:41.820Z,2.00
2023-01-04T02:23:01.981Z,2.25
2023-01-04T02:33:10.810Z,3.38
2023-01-04T02:38:22.263Z,3.95
2023-01-04T02:43:46.070Z,4.07
2023-01-04T02:49:07.004Z,4.30
2023-01-04T02:54:10.683Z,4.88
2023-01-04T02:59:19.700Z,3.95
2023-01-04T03:04:48.953Z,4.10
2023-01-04T03:09:54.246Z,3.75
2023-01-04T03:15:00.457Z,3.78
2023-01-04T03:20:02.105Z,3.80
2023-01-04T03:25:23.441Z,3.53
2023-01-04T03:30:50.803Z,3.35
2023-01-04T03:36:01.636Z,4.18
2023-01-04T03:41:37.461Z,2.95
2023-01-04T03:47:07.069Z,3.00
2023-01-04T03:52:09.426Z,2.93
2023-01-04T03:57:11.987Z,3.33
2023-01-04T04:02:19.225Z,2.88
2023-01-04T04:07:39.527Z,2.95
2023-01-04T04:17:42.752Z,2.67
2023-01-04T04:22:44.201Z,2.92
2023-01-04T04:27:45.638Z,2.65
2023-01-04T04:32:47.393Z,2.60
2023-01-04T04:37:48.831Z,2.58
2023-01-04T04:42:50.256Z,2.35
2023-01-04T04:47:51.667Z,2.30
2023-01-04T04:52:56.211Z,2.50
2023-01-04T04:57:57.999Z,2.60
2023-01-04T05:02:59.903Z,2.35
2023-01-04T05:08:01.498Z,2.80
2023-01-04T05:13:03.933Z,3.03
2023-01-04T05:18:24.084Z,2.58
2023-01-04T05:28:27.094Z,2.38
2023-01-04T05:33:30.096Z,2.78
2023-01-04T05:38:31.612Z,1.70
2023-01-04T05:43:33.062Z,1.92
2023-01-04T05:48:34.474Z,1.73
2023-01-04T05:53:35.883Z,1.90
2023-01-04T05:58:37.383Z,1.40
2023-01-04T06:03:39.012Z,1.83
2023-01-04T06:08:40.593Z,1.58
2023-01-04T06:13:42.004Z,1.77
2023-01-04T06:18:43.447Z,1.80
2023-01-04T06:23:44.893Z,1.92
2023-01-04T06:28:46.338Z,2.20
2023-01-04T06:33:47.777Z,2.40
2023-01-04T06:38:49.304Z,3.20
2023-01-04T06:43:50.939Z,2.90
2023-01-04T06:48:53.780Z,2.92
2023-01-04T06:53:55.219Z,3.30
2023-01-04T06:58:56.653Z,2.45
2023-01-04T07:03:58.179Z,2.90
2023-01-04T07:08:59.739Z,2.63
2023-01-04T07:14:01.185Z,2.80
2023-01-04T07:19:02.649Z,2.10
2023-01-04T07:24:04.113Z,2.72
2023-01-04T07:29:14.821Z,2.97
2023-01-04T07:34:17.106Z,3.00
2023-01-04T07:39:18.670Z,2.85
2023-01-04T07:44:21.710Z,2.65
2023-01-04T07:49:23.209Z,3.17
2023-01-04T07:54:24.675Z,2.40
2023-01-04T07:59:26.148Z,2.83
2023-01-04T08:04:34.367Z,2.03
2023-01-04T08:09:36.192Z,2.25
2023-01-04T08:14:37.627Z,2.00
2023-01-04T08:19:39.144Z,2.05
2023-01-04T08:24:41.364Z,1.70
2023-01-04T08:29:43.195Z,1.58
2023-01-04T08:34:44.652Z,1.50
2023-01-04T08:39:49.342Z,1.60
2023-01-04T08:44:57.102Z,1.60
2023-01-04T08:50:04.824Z,2.13
2023-01-04T08:55:12.912Z,1.90
2023-01-04T09:00:18.169Z,2.20
2023-01-04T09:05:22.997Z,2.10
2023-01-04T09:10:24.897Z,2.22
2023-01-04T09:15:26.339Z,3.25
2023-01-04T09:20:27.845Z,3.33
2023-01-04T09:25:29.268Z,5.32
2023-01-04T09:30:31.798Z,3.85
2023-01-04T09:35:33.626Z,4.53
2023-01-04T09:40:44.835Z,5.50
2023-01-04T09:45:47.419Z,5.13
2023-01-04T09:50:52.929Z,5.38
2023-01-04T09:55:56.954Z,5.50
2023-01-04T10:01:15.286Z,5.65
2023-01-04T10:06:17.077Z,5.53
2023-01-04T10:11:37.128Z,4.78
2023-01-04T10:17:35.608Z,4.65
2023-01-04T10:22:40.939Z,5.28
2023-01-04T10:27:51.447Z,4.63
2023-01-04T10:33:00.628Z,4.55
2023-01-04T10:38:03.615Z,5.60
2023-01-04T10:43:23.718Z,4.93
2023-01-04T10:53:33.449Z,3.92
2023-01-04T10:58:38.192Z,4.03
2023-01-04T11:03:43.173Z,3.47
2023-01-04T11:08:58.757Z,3.38
2023-01-04T11:14:00.376Z,2.85
2023-01-04T11:19:04.097Z,2.08
2023-01-04T11:24:31.116Z,1.63
2023-01-04T11:29:32.249Z,1.73
2023-01-04T11:34:52.680Z,1.30
2023-01-04T11:40:12.797Z,3.05
2023-01-04T11:50:35.380Z,1.95
2023-01-04T11:55:36.951Z,2.47
2023-01-04T12:00:39.010Z,2.75
2023-01-04T12:05:41.032Z,3.80
2023-01-04T12:10:42.450Z,3.72
2023-01-04T12:15:49.899Z,4.57
2023-01-04T12:20:51.452Z,4.07
2023-01-04T12:25:53.564Z,3.42
2023-01-04T12:30:55.306Z,4.65
2023-01-04T12:35:59.643Z,4.40
2023-01-04T12:41:01.080Z,4.35
2023-01-04T12:46:41.349Z,4.45
2023-01-04T12:51:58.224Z,4.28
2023-01-04T12:57:10.460Z,4.40
2023-01-04T13:02:17.020Z,3.50
2023-01-04T13:07:21.472Z,4.35
2023-01-04T13:12:32.199Z,4.15
2023-01-04T13:17:38.612Z,4.28
2023-01-04T13:22:43.904Z,4.57
2023-01-04T13:28:17.184Z,3.92
2023-01-04T13:33:29.544Z,3.47
2023-01-04T13:38:31.959Z,4.00
2023-01-04T13:43:33.379Z,4.45
2023-01-04T13:48:38.761Z,3.72
2023-01-04T13:53:40.467Z,3.90
2023-01-04T13:58:43.502Z,3.90
2023-01-04T14:03:48.019Z,4.30
2023-01-04T14:08:53.776Z,3.58
2023-01-04T14:13:55.188Z,3.28
2023-01-04T14:18:56.663Z,3.75
2023-01-04T14:23:58.087Z,2.85
2023-01-04T14:28:59.592Z,4.18
2023-01-04T14:34:05.584Z,3.63
2023-01-04T14:39:07.004Z,3.85
2023-01-04T14:44:08.425Z,3.45
2023-01-04T14:49:10.181Z,3.63
2023-01-04T14:54:22.255Z,3.20
2023-01-04T14:59:26.897Z,4.90
2023-01-04T15:04:28.460Z,3.53
2023-01-04T15:09:30.345Z,4.20
2023-01-04T15:14:31.899Z,3.60
2023-01-04T15:19:37.717Z,3.63
2023-01-04T15:24:39.774Z,3.47
2023-01-04T15:29:41.202Z,3.60
2023-01-04T15:34:46.798Z,3.70
2023-01-04T15:39:48.575Z,3.75
2023-01-04T15:44:50.383Z,4.80
2023-01-04T15:49:51.947Z,3.72
2023-01-04T15:54:54.003Z,3.90
2023-01-04T15:59:55.434Z,3.90
2023-01-04T16:04:56.930Z,5.28
2023-01-04T16:09:58.458Z,3.80
2023-01-04T16:14:59.929Z,3.58
2023-01-04T16:20:01.402Z,4.07
2023-01-04T16:25:11.675Z,4.00
2023-01-04T16:30:14.160Z,4.55
2023-01-04T16:35:15.844Z,4.28
2023-01-04T16:40:17.535Z,5.28
2023-01-04T16:45:19.395Z,5.60
2023-01-04T16:50:20.864Z,5.05
2023-01-04T16:55:24.193Z,3.95
2023-01-04T17:00:25.879Z,4.57
2023-01-04T17:05:27.397Z,5.38
2023-01-04T17:10:29.872Z,5.05
2023-01-04T17:15:42.950Z,5.28
2023-01-04T17:20:51.905Z,4.63
2023-01-04T17:25:53.494Z,5.18
2023-01-04T17:30:55.035Z,5.18
2023-01-04T17:35:57.744Z,5.70
2023-01-04T17:41:09.715Z,5.70
2023-01-04T17:46:16.310Z,5.30
2023-01-04T17:51:21.795Z,5.28
2023-01-04T17:56:23.709Z,5.00
2023-01-04T18:01:26.111Z,5.47
2023-01-04T18:06:28.832Z,4.07
2023-01-04T18:11:30.370Z,4.95
2023-01-04T18:16:32.132Z,5.63
2023-01-04T18:21:33.852Z,4.20
2023-01-04T18:26:53.518Z,4.03
2023-01-04T18:31:56.844Z,5.00
2023-01-04T18:36:58.295Z,4.35
2023-01-04T18:41:59.828Z,3.83
2023-01-04T18:47:01.537Z,4.72
2023-01-04T18:52:03.104Z,4.85
2023-01-04T18:57:05.226Z,5.47
2023-01-04T19:02:06.906Z,4.38
2023-01-04T19:07:08.525Z,6.15
2023-01-04T19:12:10.008Z,6.75
2023-01-04T19:17:11.597Z,4.85
2023-01-04T19:22:13.069Z,5.15
2023-01-04T19:27:14.570Z,5.65
2023-01-04T19:32:19.373Z,5.47
2023-01-04T19:37:20.840Z,4.57
2023-01-04T19:42:22.282Z,6.15
2023-01-04T19:47:23.799Z,4.72
2023-01-04T19:52:25.374Z,4.45
2023-01-04T19:57:26.861Z,5.07
2023-01-04T20:02:28.473Z,4.47
2023-01-04T20:07:30.106Z,5.57
2023-01-04T20:12:31.642Z,4.65
2023-01-04T20:17:33.100Z,5.07
2023-01-04T20:22:34.602Z,5.00
2023-01-04T20:27:36.031Z,5.25
2023-01-04T20:32:37.518Z,4.30
2023-01-04T20:37:38.936Z,5.22
2023-01-04T20:42:58.893Z,3.95
2023-01-04T20:48:00.300Z,4.85
2023-01-04T20:53:01.810Z,5.10
2023-01-04T20:58:05.319Z,4.90
2023-01-04T21:03:09.048Z,5.38
2023-01-04T21:08:11.381Z,4.28
2023-01-04T21:13:12.841Z,5.10
2023-01-04T21:18:14.433Z,3.95
2023-01-04T21:23:17.114Z,4.38
2023-01-04T21:28:20.677Z,5.25
2023-01-04T21:33:22.196Z,5.05
2023-01-04T21:38:23.756Z,4.55
2023-01-04T21:43:25.204Z,4.20
2023-01-04T21:48:27.065Z,4.88
2023-01-04T21:53:29.779Z,4.57
2023-01-04T21:58:31.238Z,5.05
2023-01-04T22:03:32.674Z,4.20
2023-01-04T22:08:34.544Z,3.88
2023-01-04T22:13:36.079Z,4.38
2023-01-04T22:18:37.539Z,4.25
2023-01-04T22:23:39.239Z,4.65
2023-01-04T22:28:40.874Z,4.75
2023-01-04T22:33:42.818Z,4.97
2023-01-04T22:38:44.250Z,5.22
2023-01-04T22:43:46.238Z,4.47
2023-01-04T22:48:47.724Z,5.47
2023-01-04T22:53:49.232Z,5.03
2023-01-04T22:58:54.279Z,4.93
2023-01-04T23:03:57.300Z,4.68
2023-01-04T23:09:00.465Z,4.85
2023-01-04T23:14:02.666Z,5.05
2023-01-04T23:19:05.704Z,5.32
2023-01-04T23:24:07.661Z,5.72
2023-01-04T23:29:10.830Z,5.90
2023-01-04T23:34:12.931Z,5.00
2023-01-04T23:39:15.762Z,5.03
2023-01-04T23:44:18.847Z,5.90
2023-01-04T23:49:20.627Z,5.10
2023-01-04T23:54:22.194Z,5.75
2023-01-04T23:59:23.855Z,6.03
